sensor_id;sensor_type;location;lat;lon;timestamp;temperature;humidity
5697;DHT22;2873;50.966;7.210;2023-05-07T00:00:19;16.00;99.90
5697;DHT22;2873;50.966;7.210;2023-05-07T00:02:45;16.10;99.90
5697;DHT22;2873;50.966;7.210;2023-05-07T00:05:11;16.10;99.90
5697;DHT22;2873;50.966;7.210;2023-05-07T00:07:37;16.10;99.90
5697;DHT22;2873;50.966;7.210;2023-05-07T00:10:03;16.10;99.90
5697;DHT22;2873;50.966;7.210;2023-05-07T00:12:29;16.10;99.90
5697;DHT22;2873;50.966;7.210;2023-05-07T00:15:00;16.10;99.90
5697;DHT22;2873;50.966;7.210;2023-05-07T00:17:25;16.10;99.90
5697;DHT22;2873;50.966;7.210;2023-05-07T00:19:51;16.10;99.90
5697;DHT22;2873;50.966;7.210;2023-05-07T00:22:16;16.10;99.90
5697;DHT22;2873;50.966;7.210;2023-05-07T00:24:42;16.10;99.90
5697;DHT22;2873;50.966;7.210;2023-05-07T00:27:08;16.10;99.90
5697;DHT22;2873;50.966;7.210;2023-05-07T00:29:33;16.10;99.90
5697;DHT22;2873;50.966;7.210;2023-05-07T00:31:59;16.10;99.90
5697;DHT22;2873;50.966;7.210;2023-05-07T00:34:25;16.10;99.90
5697;DHT22;2873;50.966;7.210;2023-05-07T00:36:50;16.00;99.90
5697;DHT22;2873;50.966;7.210;2023-05-07T00:39:16;16.00;99.90
5697;DHT22;2873;50.966;7.210;2023-05-07T00:41:41;16.00;99.90
5697;DHT22;2873;50.966;7.210;2023-05-07T00:44:07;16.00;99.90
5697;DHT22;2873;50.966;7.210;2023-05-07T00:46:32;16.00;99.90
5697;DHT22;2873;50.966;7.210;2023-05-07T00:48:59;16.00;99.90
5697;DHT22;2873;50.966;7.210;2023-05-07T00:51:25;16.00;99.90
5697;DHT22;2873;50.966;7.210;2023-05-07T00:53:53;16.00;99.90
5697;DHT22;2873;50.966;7.210;2023-05-07T00:56:20;15.90;99.90
5697;DHT22;2873;50.966;7.210;2023-05-07T00:58:46;15.90;99.90
5697;DHT22;2873;50.966;7.210;2023-05-07T01:01:11;15.90;99.90
5697;DHT22;2873;50.966;7.210;2023-05-07T01:03:37;15.90;99.90
5697;DHT22;2873;50.966;7.210;2023-05-07T01:06:03;15.90;99.90
5697;DHT22;2873;50.966;7.210;2023-05-07T01:08:30;16.00;99.90
5697;DHT22;2873;50.966;7.210;2023-05-07T01:10:57;16.00;99.90
5697;DHT22;2873;50.966;7.210;2023-05-07T01:13:24;16.00;99.90
5697;DHT22;2873;50.966;7.210;2023-05-07T01:15:50;16.00;99.90
5697;DHT22;2873;50.966;7.210;2023-05-07T01:18:15;16.00;99.90
5697;DHT22;2873;50.966;7.210;2023-05-07T01:20:42;16.00;99.90
5697;DHT22;2873;50.966;7.210;2023-05-07T01:23:07;16.10;99.90
5697;DHT22;2873;50.966;7.210;2023-05-07T01:25:34;16.00;99.90
5697;DHT22;2873;50.966;7.210;2023-05-07T01:28:00;16.00;99.90
5697;DHT22;2873;50.966;7.210;2023-05-07T01:30:27;16.10;99.90
5697;DHT22;2873;50.966;7.210;2023-05-07T01:33:01;16.10;99.90
5697;DHT22;2873;50.966;7.210;2023-05-07T01:35:32;16.10;99.90
5697;DHT22;2873;50.966;7.210;2023-05-07T01:38:00;16.00;99.90
5697;DHT22;2873;50.966;7.210;2023-05-07T01:40:26;16.00;99.90
5697;DHT22;2873;50.966;7.210;2023-05-07T01:42:53;15.90;99.90
5697;DHT22;2873;50.966;7.210;2023-05-07T01:45:19;15.90;99.90
5697;DHT22;2873;50.966;7.210;2023-05-07T01:47:45;15.90;99.90
5697;DHT22;2873;50.966;7.210;2023-05-07T01:50:11;16.00;99.90
5697;DHT22;2873;50.966;7.210;2023-05-07T01:52:40;16.00;99.90
5697;DHT22;2873;50.966;7.210;2023-05-07T01:55:06;16.00;99.90
5697;DHT22;2873;50.966;7.210;2023-05-07T01:57:32;16.10;99.90
5697;DHT22;2873;50.966;7.210;2023-05-07T01:59:57;16.10;99.90
5697;DHT22;2873;50.966;7.210;2023-05-07T02:02:23;16.30;99.90
5697;DHT22;2873;50.966;7.210;2023-05-07T02:04:49;16.10;99.90
5697;DHT22;2873;50.966;7.210;2023-05-07T02:07:14;16.10;99.90
5697;DHT22;2873;50.966;7.210;2023-05-07T02:09:40;16.10;99.90
5697;DHT22;2873;50.966;7.210;2023-05-07T02:12:05;16.10;99.90
5697;DHT22;2873;50.966;7.210;2023-05-07T02:14:31;16.10;99.90
5697;DHT22;2873;50.966;7.210;2023-05-07T02:16:56;16.10;99.90
5697;DHT22;2873;50.966;7.210;2023-05-07T02:19:22;16.10;99.90
5697;DHT22;2873;50.966;7.210;2023-05-07T02:21:47;16.10;99.90
5697;DHT22;2873;50.966;7.210;2023-05-07T02:24:13;16.10;99.90
5697;DHT22;2873;50.966;7.210;2023-05-07T02:26:42;16.10;99.90
5697;DHT22;2873;50.966;7.210;2023-05-07T02:29:07;16.10;99.90
5697;DHT22;2873;50.966;7.210;2023-05-07T02:31:33;16.00;99.90
5697;DHT22;2873;50.966;7.210;2023-05-07T02:34:01;16.10;99.90
5697;DHT22;2873;50.966;7.210;2023-05-07T02:36:27;16.00;99.90
5697;DHT22;2873;50.966;7.210;2023-05-07T02:38:53;16.00;99.90
5697;DHT22;2873;50.966;7.210;2023-05-07T02:41:18;15.90;99.90
5697;DHT22;2873;50.966;7.210;2023-05-07T02:43:44;16.00;99.90
5697;DHT22;2873;50.966;7.210;2023-05-07T02:46:10;16.00;99.90
5697;DHT22;2873;50.966;7.210;2023-05-07T02:48:35;16.10;99.90
5697;DHT22;2873;50.966;7.210;2023-05-07T02:51:02;16.10;99.90
5697;DHT22;2873;50.966;7.210;2023-05-07T02:53:27;16.10;99.90
5697;DHT22;2873;50.966;7.210;2023-05-07T02:55:56;16.00;99.90
5697;DHT22;2873;50.966;7.210;2023-05-07T02:58:22;16.00;99.90
5697;DHT22;2873;50.966;7.210;2023-05-07T03:00:47;16.00;99.90
5697;DHT22;2873;50.966;7.210;2023-05-07T03:03:13;16.10;99.90
5697;DHT22;2873;50.966;7.210;2023-05-07T03:05:39;16.10;99.90
5697;DHT22;2873;50.966;7.210;2023-05-07T03:08:05;16.00;99.90
5697;DHT22;2873;50.966;7.210;2023-05-07T03:10:30;16.00;99.90
5697;DHT22;2873;50.966;7.210;2023-05-07T03:12:56;16.00;99.90
5697;DHT22;2873;50.966;7.210;2023-05-07T03:15:21;16.10;99.90
5697;DHT22;2873;50.966;7.210;2023-05-07T03:17:48;16.10;99.90
5697;DHT22;2873;50.966;7.210;2023-05-07T03:20:13;16.00;99.90
5697;DHT22;2873;50.966;7.210;2023-05-07T03:22:39;16.00;99.90
5697;DHT22;2873;50.966;7.210;2023-05-07T03:25:06;16.00;99.90
5697;DHT22;2873;50.966;7.210;2023-05-07T03:27:31;16.00;99.90
5697;DHT22;2873;50.966;7.210;2023-05-07T03:29:57;15.90;99.90
5697;DHT22;2873;50.966;7.210;2023-05-07T03:32:23;15.90;99.90
5697;DHT22;2873;50.966;7.210;2023-05-07T03:34:48;15.90;99.90
5697;DHT22;2873;50.966;7.210;2023-05-07T03:37:14;15.90;99.90
5697;DHT22;2873;50.966;7.210;2023-05-07T03:39:39;15.90;99.90
5697;DHT22;2873;50.966;7.210;2023-05-07T03:42:05;15.80;99.90
5697;DHT22;2873;50.966;7.210;2023-05-07T03:44:30;15.90;99.90
5697;DHT22;2873;50.966;7.210;2023-05-07T03:46:56;15.90;99.90
5697;DHT22;2873;50.966;7.210;2023-05-07T03:49:21;15.80;99.90
5697;DHT22;2873;50.966;7.210;2023-05-07T03:51:47;15.80;99.90
5697;DHT22;2873;50.966;7.210;2023-05-07T03:54:13;15.70;99.90
5697;DHT22;2873;50.966;7.210;2023-05-07T03:56:38;15.70;99.90
5697;DHT22;2873;50.966;7.210;2023-05-07T03:59:04;15.70;99.90
5697;DHT22;2873;50.966;7.210;2023-05-07T04:01:29;15.70;99.90
5697;DHT22;2873;50.966;7.210;2023-05-07T04:03:56;15.70;99.90
5697;DHT22;2873;50.966;7.210;2023-05-07T04:06:21;15.60;99.90
5697;DHT22;2873;50.966;7.210;2023-05-07T04:08:47;15.50;99.90
5697;DHT22;2873;50.966;7.210;2023-05-07T04:11:13;15.60;99.90
5697;DHT22;2873;50.966;7.210;2023-05-07T04:13:38;15.60;99.90
5697;DHT22;2873;50.966;7.210;2023-05-07T04:16:05;15.60;99.90
5697;DHT22;2873;50.966;7.210;2023-05-07T04:18:31;15.60;99.90
5697;DHT22;2873;50.966;7.210;2023-05-07T04:20:56;15.60;99.90
5697;DHT22;2873;50.966;7.210;2023-05-07T04:23:22;15.60;99.90
5697;DHT22;2873;50.966;7.210;2023-05-07T04:25:47;15.60;99.90
5697;DHT22;2873;50.966;7.210;2023-05-07T04:28:13;15.50;99.90
5697;DHT22;2873;50.966;7.210;2023-05-07T04:30:39;15.50;99.90
5697;DHT22;2873;50.966;7.210;2023-05-07T04:33:06;15.60;99.90
5697;DHT22;2873;50.966;7.210;2023-05-07T04:35:32;15.60;99.90
5697;DHT22;2873;50.966;7.210;2023-05-07T04:37:58;15.60;99.90
5697;DHT22;2873;50.966;7.210;2023-05-07T04:40:23;15.70;99.90
5697;DHT22;2873;50.966;7.210;2023-05-07T04:42:49;15.70;99.90
5697;DHT22;2873;50.966;7.210;2023-05-07T04:45:14;15.70;99.90
5697;DHT22;2873;50.966;7.210;2023-05-07T04:47:40;15.70;99.90
5697;DHT22;2873;50.966;7.210;2023-05-07T04:50:07;15.70;99.90
5697;DHT22;2873;50.966;7.210;2023-05-07T04:52:33;15.70;99.90
5697;DHT22;2873;50.966;7.210;2023-05-07T04:54:59;15.80;99.90
5697;DHT22;2873;50.966;7.210;2023-05-07T04:57:26;15.80;99.90
5697;DHT22;2873;50.966;7.210;2023-05-07T04:59:52;15.80;99.90
5697;DHT22;2873;50.966;7.210;2023-05-07T05:02:17;15.80;99.90
5697;DHT22;2873;50.966;7.210;2023-05-07T05:04:43;15.80;99.90
5697;DHT22;2873;50.966;7.210;2023-05-07T05:07:08;15.80;99.90
5697;DHT22;2873;50.966;7.210;2023-05-07T05:09:34;15.70;99.90
5697;DHT22;2873;50.966;7.210;2023-05-07T05:11:59;15.80;99.90
5697;DHT22;2873;50.966;7.210;2023-05-07T05:14:25;15.80;99.90
5697;DHT22;2873;50.966;7.210;2023-05-07T05:16:51;15.80;99.90
5697;DHT22;2873;50.966;7.210;2023-05-07T05:19:16;15.80;99.90
5697;DHT22;2873;50.966;7.210;2023-05-07T05:21:42;15.90;99.90
5697;DHT22;2873;50.966;7.210;2023-05-07T05:24:08;16.00;99.90
5697;DHT22;2873;50.966;7.210;2023-05-07T05:26:34;16.10;99.90
5697;DHT22;2873;50.966;7.210;2023-05-07T05:28:59;16.20;99.90
5697;DHT22;2873;50.966;7.210;2023-05-07T05:31:25;16.20;99.90
5697;DHT22;2873;50.966;7.210;2023-05-07T05:33:50;16.30;99.90
5697;DHT22;2873;50.966;7.210;2023-05-07T05:36:16;16.40;99.90
5697;DHT22;2873;50.966;7.210;2023-05-07T05:38:42;16.40;99.90
5697;DHT22;2873;50.966;7.210;2023-05-07T05:41:07;16.50;99.90
5697;DHT22;2873;50.966;7.210;2023-05-07T05:43:33;16.60;99.90
5697;DHT22;2873;50.966;7.210;2023-05-07T05:45:58;16.60;99.90
5697;DHT22;2873;50.966;7.210;2023-05-07T05:48:25;16.70;99.90
5697;DHT22;2873;50.966;7.210;2023-05-07T05:50:51;16.80;99.90
5697;DHT22;2873;50.966;7.210;2023-05-07T05:53:16;16.80;99.90
5697;DHT22;2873;50.966;7.210;2023-05-07T05:55:42;16.90;99.90
5697;DHT22;2873;50.966;7.210;2023-05-07T05:58:09;16.90;99.90
5697;DHT22;2873;50.966;7.210;2023-05-07T06:00:34;16.90;99.90
5697;DHT22;2873;50.966;7.210;2023-05-07T06:03:00;16.90;99.90
5697;DHT22;2873;50.966;7.210;2023-05-07T06:05:26;17.00;99.90
5697;DHT22;2873;50.966;7.210;2023-05-07T06:07:51;17.00;99.90
5697;DHT22;2873;50.966;7.210;2023-05-07T06:10:17;17.10;99.90
5697;DHT22;2873;50.966;7.210;2023-05-07T06:12:42;17.20;99.90
5697;DHT22;2873;50.966;7.210;2023-05-07T06:15:08;17.20;99.90
5697;DHT22;2873;50.966;7.210;2023-05-07T06:17:34;17.20;99.90
5697;DHT22;2873;50.966;7.210;2023-05-07T06:19:59;17.30;99.90
5697;DHT22;2873;50.966;7.210;2023-05-07T06:22:25;17.40;99.90
5697;DHT22;2873;50.966;7.210;2023-05-07T06:24:51;17.40;99.90
5697;DHT22;2873;50.966;7.210;2023-05-07T06:27:16;17.50;99.90
5697;DHT22;2873;50.966;7.210;2023-05-07T06:29:42;17.50;99.90
5697;DHT22;2873;50.966;7.210;2023-05-07T06:32:12;17.60;99.90
5697;DHT22;2873;50.966;7.210;2023-05-07T06:34:39;17.60;99.90
5697;DHT22;2873;50.966;7.210;2023-05-07T06:37:05;17.70;99.90
5697;DHT22;2873;50.966;7.210;2023-05-07T06:39:31;17.80;99.90
5697;DHT22;2873;50.966;7.210;2023-05-07T06:41:57;17.90;99.90
5697;DHT22;2873;50.966;7.210;2023-05-07T06:44:23;18.00;99.90
5697;DHT22;2873;50.966;7.210;2023-05-07T06:46:48;18.10;99.90
5697;DHT22;2873;50.966;7.210;2023-05-07T06:49:14;18.00;99.90
5697;DHT22;2873;50.966;7.210;2023-05-07T06:51:39;18.10;99.90
5697;DHT22;2873;50.966;7.210;2023-05-07T06:54:05;18.10;99.90
5697;DHT22;2873;50.966;7.210;2023-05-07T06:56:31;18.10;99.90
5697;DHT22;2873;50.966;7.210;2023-05-07T06:58:57;18.30;99.90
5697;DHT22;2873;50.966;7.210;2023-05-07T07:01:22;18.30;99.90
5697;DHT22;2873;50.966;7.210;2023-05-07T07:03:48;18.40;99.90
5697;DHT22;2873;50.966;7.210;2023-05-07T07:06:14;18.20;99.90
5697;DHT22;2873;50.966;7.210;2023-05-07T07:08:39;18.40;99.90
5697;DHT22;2873;50.966;7.210;2023-05-07T07:11:06;18.50;99.90
5697;DHT22;2873;50.966;7.210;2023-05-07T07:13:31;18.50;99.90
5697;DHT22;2873;50.966;7.210;2023-05-07T07:15:57;18.50;99.90
5697;DHT22;2873;50.966;7.210;2023-05-07T07:18:22;18.60;99.90
5697;DHT22;2873;50.966;7.210;2023-05-07T07:20:48;18.70;99.90
5697;DHT22;2873;50.966;7.210;2023-05-07T07:23:14;18.50;99.90
5697;DHT22;2873;50.966;7.210;2023-05-07T07:25:39;18.70;99.90
5697;DHT22;2873;50.966;7.210;2023-05-07T07:28:05;18.70;99.90
5697;DHT22;2873;50.966;7.210;2023-05-07T07:30:31;18.80;99.90
5697;DHT22;2873;50.966;7.210;2023-05-07T07:32:57;18.70;99.90
5697;DHT22;2873;50.966;7.210;2023-05-07T07:35:30;18.80;99.90
5697;DHT22;2873;50.966;7.210;2023-05-07T07:37:56;18.70;99.90
5697;DHT22;2873;50.966;7.210;2023-05-07T07:40:22;18.90;99.90
5697;DHT22;2873;50.966;7.210;2023-05-07T07:42:47;19.00;99.90
5697;DHT22;2873;50.966;7.210;2023-05-07T07:45:13;19.20;99.90
5697;DHT22;2873;50.966;7.210;2023-05-07T07:47:40;19.20;99.90
5697;DHT22;2873;50.966;7.210;2023-05-07T07:50:06;19.00;99.90
5697;DHT22;2873;50.966;7.210;2023-05-07T07:52:32;19.30;99.90
5697;DHT22;2873;50.966;7.210;2023-05-07T07:54:58;19.40;99.90
5697;DHT22;2873;50.966;7.210;2023-05-07T07:57:23;19.40;99.90
5697;DHT22;2873;50.966;7.210;2023-05-07T07:59:49;19.60;99.90
5697;DHT22;2873;50.966;7.210;2023-05-07T08:02:15;19.80;99.90
5697;DHT22;2873;50.966;7.210;2023-05-07T08:04:41;20.00;99.90
5697;DHT22;2873;50.966;7.210;2023-05-07T08:07:11;20.20;99.90
5697;DHT22;2873;50.966;7.210;2023-05-07T08:09:38;20.30;99.90
5697;DHT22;2873;50.966;7.210;2023-05-07T08:12:04;20.50;99.90
5697;DHT22;2873;50.966;7.210;2023-05-07T08:14:30;20.70;99.90
5697;DHT22;2873;50.966;7.210;2023-05-07T08:16:56;20.90;99.90
5697;DHT22;2873;50.966;7.210;2023-05-07T08:19:21;21.00;99.90
5697;DHT22;2873;50.966;7.210;2023-05-07T08:21:47;21.10;99.90
5697;DHT22;2873;50.966;7.210;2023-05-07T08:24:14;21.30;99.90
5697;DHT22;2873;50.966;7.210;2023-05-07T08:26:40;21.30;99.90
5697;DHT22;2873;50.966;7.210;2023-05-07T08:29:05;21.50;99.90
5697;DHT22;2873;50.966;7.210;2023-05-07T08:31:31;21.70;99.90
5697;DHT22;2873;50.966;7.210;2023-05-07T08:33:57;21.60;99.90
5697;DHT22;2873;50.966;7.210;2023-05-07T08:36:23;21.70;99.90
5697;DHT22;2873;50.966;7.210;2023-05-07T08:38:49;21.60;99.90
5697;DHT22;2873;50.966;7.210;2023-05-07T08:41:15;21.50;99.90
5697;DHT22;2873;50.966;7.210;2023-05-07T08:43:41;21.60;99.90
5697;DHT22;2873;50.966;7.210;2023-05-07T08:46:10;21.80;99.90
5697;DHT22;2873;50.966;7.210;2023-05-07T08:48:36;21.90;99.90
5697;DHT22;2873;50.966;7.210;2023-05-07T08:51:03;22.00;99.90
5697;DHT22;2873;50.966;7.210;2023-05-07T08:53:29;22.00;99.90
5697;DHT22;2873;50.966;7.210;2023-05-07T08:55:55;21.90;99.90
5697;DHT22;2873;50.966;7.210;2023-05-07T08:58:20;21.50;99.90
5697;DHT22;2873;50.966;7.210;2023-05-07T09:00:47;21.60;99.90
5697;DHT22;2873;50.966;7.210;2023-05-07T09:03:12;21.50;99.90
5697;DHT22;2873;50.966;7.210;2023-05-07T09:05:39;21.70;99.90
5697;DHT22;2873;50.966;7.210;2023-05-07T09:08:06;21.50;99.90
5697;DHT22;2873;50.966;7.210;2023-05-07T09:10:35;21.70;99.90
5697;DHT22;2873;50.966;7.210;2023-05-07T09:13:00;21.60;99.90
5697;DHT22;2873;50.966;7.210;2023-05-07T09:15:28;21.60;99.90
5697;DHT22;2873;50.966;7.210;2023-05-07T09:17:54;21.50;99.90
5697;DHT22;2873;50.966;7.210;2023-05-07T09:20:24;21.50;99.90
5697;DHT22;2873;50.966;7.210;2023-05-07T09:22:49;21.70;99.90
5697;DHT22;2873;50.966;7.210;2023-05-07T09:25:28;21.80;99.90
5697;DHT22;2873;50.966;7.210;2023-05-07T09:27:54;21.60;99.90
5697;DHT22;2873;50.966;7.210;2023-05-07T09:30:20;21.90;99.90
5697;DHT22;2873;50.966;7.210;2023-05-07T09:32:45;21.90;99.90
5697;DHT22;2873;50.966;7.210;2023-05-07T09:35:15;22.00;99.90
5697;DHT22;2873;50.966;7.210;2023-05-07T09:37:42;22.30;99.90
5697;DHT22;2873;50.966;7.210;2023-05-07T09:40:08;22.30;99.90
5697;DHT22;2873;50.966;7.210;2023-05-07T09:42:36;22.30;99.90
5697;DHT22;2873;50.966;7.210;2023-05-07T09:45:02;22.30;99.90
5697;DHT22;2873;50.966;7.210;2023-05-07T09:47:30;22.60;99.90
5697;DHT22;2873;50.966;7.210;2023-05-07T09:49:59;22.30;99.90
5697;DHT22;2873;50.966;7.210;2023-05-07T09:52:26;22.70;99.90
5697;DHT22;2873;50.966;7.210;2023-05-07T09:54:59;22.90;99.90
5697;DHT22;2873;50.966;7.210;2023-05-07T09:57:25;23.10;99.90
5697;DHT22;2873;50.966;7.210;2023-05-07T09:59:52;23.30;99.90
5697;DHT22;2873;50.966;7.210;2023-05-07T10:02:19;23.60;99.90
5697;DHT22;2873;50.966;7.210;2023-05-07T10:04:46;23.80;99.90
5697;DHT22;2873;50.966;7.210;2023-05-07T10:07:13;24.00;99.90
5697;DHT22;2873;50.966;7.210;2023-05-07T10:09:38;23.80;99.90
5697;DHT22;2873;50.966;7.210;2023-05-07T10:12:07;24.00;99.90
5697;DHT22;2873;50.966;7.210;2023-05-07T10:14:33;24.00;99.90
5697;DHT22;2873;50.966;7.210;2023-05-07T10:17:00;24.40;99.90
5697;DHT22;2873;50.966;7.210;2023-05-07T10:19:27;24.50;99.90
5697;DHT22;2873;50.966;7.210;2023-05-07T10:21:56;24.60;99.90
5697;DHT22;2873;50.966;7.210;2023-05-07T10:24:29;24.80;99.90
5697;DHT22;2873;50.966;7.210;2023-05-07T10:26:56;24.70;99.90
5697;DHT22;2873;50.966;7.210;2023-05-07T10:34:49;24.70;99.90
5697;DHT22;2873;50.966;7.210;2023-05-07T10:37:16;24.90;99.90
5697;DHT22;2873;50.966;7.210;2023-05-07T10:39:42;24.40;99.90
5697;DHT22;2873;50.966;7.210;2023-05-07T10:42:14;24.10;99.90
5697;DHT22;2873;50.966;7.210;2023-05-07T10:44:39;24.50;99.90
5697;DHT22;2873;50.966;7.210;2023-05-07T10:47:06;24.40;99.90
5697;DHT22;2873;50.966;7.210;2023-05-07T10:49:34;24.50;99.90
5697;DHT22;2873;50.966;7.210;2023-05-07T10:52:20;24.50;99.90
5697;DHT22;2873;50.966;7.210;2023-05-07T10:54:46;24.50;99.90
5697;DHT22;2873;50.966;7.210;2023-05-07T10:59:56;24.80;99.90
5697;DHT22;2873;50.966;7.210;2023-05-07T11:05:24;25.20;99.90
5697;DHT22;2873;50.966;7.210;2023-05-07T11:08:01;25.40;99.90
5697;DHT22;2873;50.966;7.210;2023-05-07T11:10:50;25.60;99.90
5697;DHT22;2873;50.966;7.210;2023-05-07T11:13:17;26.00;99.90
5697;DHT22;2873;50.966;7.210;2023-05-07T11:15:47;26.10;99.90
5697;DHT22;2873;50.966;7.210;2023-05-07T11:18:15;26.30;99.90
5697;DHT22;2873;50.966;7.210;2023-05-07T11:20:55;26.50;99.90
5697;DHT22;2873;50.966;7.210;2023-05-07T11:26:10;26.00;99.90
5697;DHT22;2873;50.966;7.210;2023-05-07T11:28:40;26.20;99.90
5697;DHT22;2873;50.966;7.210;2023-05-07T11:31:07;26.00;99.90
5697;DHT22;2873;50.966;7.210;2023-05-07T11:33:33;26.00;99.90
5697;DHT22;2873;50.966;7.210;2023-05-07T11:36:03;26.20;99.90
5697;DHT22;2873;50.966;7.210;2023-05-07T11:38:30;25.60;99.90
5697;DHT22;2873;50.966;7.210;2023-05-07T11:40:58;25.90;99.90
5697;DHT22;2873;50.966;7.210;2023-05-07T11:43:27;25.90;99.90
5697;DHT22;2873;50.966;7.210;2023-05-07T11:45:53;26.20;99.90
5697;DHT22;2873;50.966;7.210;2023-05-07T11:48:21;26.60;99.90
5697;DHT22;2873;50.966;7.210;2023-05-07T11:50:51;27.10;99.90
5697;DHT22;2873;50.966;7.210;2023-05-07T11:53:18;26.70;99.90
5697;DHT22;2873;50.966;7.210;2023-05-07T11:55:44;27.00;99.90
5697;DHT22;2873;50.966;7.210;2023-05-07T11:58:12;27.00;99.90
5697;DHT22;2873;50.966;7.210;2023-05-07T12:00:38;27.00;99.90
5697;DHT22;2873;50.966;7.210;2023-05-07T12:03:04;27.00;99.90
5697;DHT22;2873;50.966;7.210;2023-05-07T12:05:30;26.60;99.90
5697;DHT22;2873;50.966;7.210;2023-05-07T12:07:59;26.80;99.90
5697;DHT22;2873;50.966;7.210;2023-05-07T12:10:24;26.70;99.90
5697;DHT22;2873;50.966;7.210;2023-05-07T12:12:50;26.70;99.90
5697;DHT22;2873;50.966;7.210;2023-05-07T12:15:16;26.60;99.90
5697;DHT22;2873;50.966;7.210;2023-05-07T12:17:43;26.80;99.90
5697;DHT22;2873;50.966;7.210;2023-05-07T12:20:09;26.80;99.90
5697;DHT22;2873;50.966;7.210;2023-05-07T12:22:36;27.00;99.90
5697;DHT22;2873;50.966;7.210;2023-05-07T12:25:01;26.70;99.90
5697;DHT22;2873;50.966;7.210;2023-05-07T12:27:28;26.30;99.90
5697;DHT22;2873;50.966;7.210;2023-05-07T12:29:53;26.40;99.90
5697;DHT22;2873;50.966;7.210;2023-05-07T12:32:21;26.40;99.90
5697;DHT22;2873;50.966;7.210;2023-05-07T12:34:49;25.90;99.90
5697;DHT22;2873;50.966;7.210;2023-05-07T12:37:16;25.80;99.90
5697;DHT22;2873;50.966;7.210;2023-05-07T12:39:47;25.90;99.90
5697;DHT22;2873;50.966;7.210;2023-05-07T12:42:19;25.90;99.90
5697;DHT22;2873;50.966;7.210;2023-05-07T12:44:48;26.00;99.90
5697;DHT22;2873;50.966;7.210;2023-05-07T12:47:15;25.90;99.90
5697;DHT22;2873;50.966;7.210;2023-05-07T12:49:41;25.80;99.90
5697;DHT22;2873;50.966;7.210;2023-05-07T12:52:06;25.90;99.90
5697;DHT22;2873;50.966;7.210;2023-05-07T12:54:33;25.50;99.90
5697;DHT22;2873;50.966;7.210;2023-05-07T12:57:09;25.40;99.90
5697;DHT22;2873;50.966;7.210;2023-05-07T12:59:39;25.20;99.90
5697;DHT22;2873;50.966;7.210;2023-05-07T13:02:05;25.20;99.90
5697;DHT22;2873;50.966;7.210;2023-05-07T13:04:32;25.20;99.90
5697;DHT22;2873;50.966;7.210;2023-05-07T13:06:58;25.20;99.90
5697;DHT22;2873;50.966;7.210;2023-05-07T13:09:24;25.10;99.90
5697;DHT22;2873;50.966;7.210;2023-05-07T13:11:49;25.20;99.90
5697;DHT22;2873;50.966;7.210;2023-05-07T13:14:15;25.10;99.90
5697;DHT22;2873;50.966;7.210;2023-05-07T13:16:40;24.90;99.90
5697;DHT22;2873;50.966;7.210;2023-05-07T13:19:06;24.70;99.90
5697;DHT22;2873;50.966;7.210;2023-05-07T13:21:32;24.70;99.90
5697;DHT22;2873;50.966;7.210;2023-05-07T13:23:58;24.90;99.90
5697;DHT22;2873;50.966;7.210;2023-05-07T13:26:24;24.80;99.90
5697;DHT22;2873;50.966;7.210;2023-05-07T13:28:50;24.80;99.90
5697;DHT22;2873;50.966;7.210;2023-05-07T13:31:16;24.70;99.90
5697;DHT22;2873;50.966;7.210;2023-05-07T13:33:42;24.70;99.90
5697;DHT22;2873;50.966;7.210;2023-05-07T13:36:07;24.90;99.90
5697;DHT22;2873;50.966;7.210;2023-05-07T13:38:33;25.00;99.90
5697;DHT22;2873;50.966;7.210;2023-05-07T13:40:59;25.20;99.90
5697;DHT22;2873;50.966;7.210;2023-05-07T13:43:25;25.40;99.90
5697;DHT22;2873;50.966;7.210;2023-05-07T13:45:50;25.40;99.90
5697;DHT22;2873;50.966;7.210;2023-05-07T13:48:16;25.60;99.90
5697;DHT22;2873;50.966;7.210;2023-05-07T13:50:41;25.80;99.90
5697;DHT22;2873;50.966;7.210;2023-05-07T13:53:07;25.80;99.90
5697;DHT22;2873;50.966;7.210;2023-05-07T13:55:33;25.80;99.90
5697;DHT22;2873;50.966;7.210;2023-05-07T13:58:00;26.00;99.90
5697;DHT22;2873;50.966;7.210;2023-05-07T14:00:27;26.10;99.90
5697;DHT22;2873;50.966;7.210;2023-05-07T14:02:53;26.10;99.90
5697;DHT22;2873;50.966;7.210;2023-05-07T14:05:19;26.20;99.90
5697;DHT22;2873;50.966;7.210;2023-05-07T14:07:45;26.30;99.90
5697;DHT22;2873;50.966;7.210;2023-05-07T14:10:11;26.20;99.90
5697;DHT22;2873;50.966;7.210;2023-05-07T14:12:36;26.20;99.90
5697;DHT22;2873;50.966;7.210;2023-05-07T14:15:03;26.20;99.90
5697;DHT22;2873;50.966;7.210;2023-05-07T14:17:28;26.20;99.90
5697;DHT22;2873;50.966;7.210;2023-05-07T14:19:54;26.20;99.90
5697;DHT22;2873;50.966;7.210;2023-05-07T14:22:21;26.30;99.90
5697;DHT22;2873;50.966;7.210;2023-05-07T14:24:47;26.20;99.90
5697;DHT22;2873;50.966;7.210;2023-05-07T14:27:12;25.90;99.90
5697;DHT22;2873;50.966;7.210;2023-05-07T14:29:38;25.70;99.90
5697;DHT22;2873;50.966;7.210;2023-05-07T14:32:03;25.40;99.90
5697;DHT22;2873;50.966;7.210;2023-05-07T14:34:29;24.90;99.90
5697;DHT22;2873;50.966;7.210;2023-05-07T14:36:55;25.00;99.90
5697;DHT22;2873;50.966;7.210;2023-05-07T14:39:21;24.60;99.90
5697;DHT22;2873;50.966;7.210;2023-05-07T14:41:47;24.40;99.90
5697;DHT22;2873;50.966;7.210;2023-05-07T14:44:13;24.00;99.90
5697;DHT22;2873;50.966;7.210;2023-05-07T14:46:38;23.90;99.90
5697;DHT22;2873;50.966;7.210;2023-05-07T14:49:04;23.60;99.90
5697;DHT22;2873;50.966;7.210;2023-05-07T14:51:30;23.40;99.90
5697;DHT22;2873;50.966;7.210;2023-05-07T14:53:56;23.20;99.90
5697;DHT22;2873;50.966;7.210;2023-05-07T14:56:21;23.10;99.90
5697;DHT22;2873;50.966;7.210;2023-05-07T14:58:47;22.90;99.90
5697;DHT22;2873;50.966;7.210;2023-05-07T15:01:14;22.90;99.90
5697;DHT22;2873;50.966;7.210;2023-05-07T15:03:40;22.50;99.90
5697;DHT22;2873;50.966;7.210;2023-05-07T15:06:05;22.40;99.90
5697;DHT22;2873;50.966;7.210;2023-05-07T15:08:31;22.20;99.90
5697;DHT22;2873;50.966;7.210;2023-05-07T15:10:57;22.20;99.90
5697;DHT22;2873;50.966;7.210;2023-05-07T15:13:22;22.10;99.90
5697;DHT22;2873;50.966;7.210;2023-05-07T15:15:48;21.80;99.90
5697;DHT22;2873;50.966;7.210;2023-05-07T15:18:15;21.70;99.90
5697;DHT22;2873;50.966;7.210;2023-05-07T15:20:41;21.60;99.90
5697;DHT22;2873;50.966;7.210;2023-05-07T15:23:08;21.40;99.90
5697;DHT22;2873;50.966;7.210;2023-05-07T15:25:39;21.40;99.90
5697;DHT22;2873;50.966;7.210;2023-05-07T15:28:05;21.30;99.90
5697;DHT22;2873;50.966;7.210;2023-05-07T15:30:31;21.10;99.90
5697;DHT22;2873;50.966;7.210;2023-05-07T15:32:57;21.20;99.90
5697;DHT22;2873;50.966;7.210;2023-05-07T15:35:25;21.30;99.90
5697;DHT22;2873;50.966;7.210;2023-05-07T15:37:51;21.40;99.90
5697;DHT22;2873;50.966;7.210;2023-05-07T15:40:17;21.40;99.90
5697;DHT22;2873;50.966;7.210;2023-05-07T15:42:45;21.40;99.90
5697;DHT22;2873;50.966;7.210;2023-05-07T15:45:11;21.40;99.90
5697;DHT22;2873;50.966;7.210;2023-05-07T15:47:36;21.40;99.90
5697;DHT22;2873;50.966;7.210;2023-05-07T15:50:02;21.40;99.90
5697;DHT22;2873;50.966;7.210;2023-05-07T15:52:29;21.20;99.90
5697;DHT22;2873;50.966;7.210;2023-05-07T15:54:55;21.10;99.90
5697;DHT22;2873;50.966;7.210;2023-05-07T15:57:21;21.30;99.90
5697;DHT22;2873;50.966;7.210;2023-05-07T15:59:47;21.10;99.90
5697;DHT22;2873;50.966;7.210;2023-05-07T16:02:13;21.30;99.90
5697;DHT22;2873;50.966;7.210;2023-05-07T16:04:38;21.30;99.90
5697;DHT22;2873;50.966;7.210;2023-05-07T16:07:04;21.40;99.90
5697;DHT22;2873;50.966;7.210;2023-05-07T16:09:30;21.40;99.90